sensor_id;sensor_type;location;lat;lon;timestamp;pressure;altitude;pressure_sealevel;temperature;humidity
44079;BME280;29744;49.078;12.878;2022-11-14T00:02:36;96585.16;;;15.75;41.19
44079;BME280;29744;49.078;12.878;2022-11-14T00:07:37;96588.19;;;15.73;41.21
44079;BME280;29744;49.078;12.878;2022-11-14T00:12:37;96580.41;;;15.72;41.26
44079;BME280;29744;49.078;12.878;2022-11-14T00:17:37;96585.81;;;15.72;40.88
44079;BME280;29744;49.078;12.878;2022-11-14T00:22:38;96578.03;;;15.70;41.09
44079;BME280;29744;49.078;12.878;2022-11-14T00:27:38;96586.47;;;15.69;41.29
44079;BME280;29744;49.078;12.878;2022-11-14T00:32:38;96594.59;;;15.69;41.26
44079;BME280;29744;49.078;12.878;2022-11-14T00:37:39;96581.41;;;15.67;41.27
44079;BME280;29744;49.078;12.878;2022-11-14T00:42:39;96587.13;;;15.66;41.11
44079;BME280;29744;49.078;12.878;2022-11-14T00:47:39;96584.75;;;15.64;41.63
44079;BME280;29744;49.078;12.878;2022-11-14T00:52:40;96580.47;;;15.63;41.33
44079;BME280;29744;49.078;12.878;2022-11-14T00:57:40;96590.47;;;15.63;41.08
44079;BME280;29744;49.078;12.878;2022-11-14T01:02:40;96581.59;;;15.62;41.15
44079;BME280;29744;49.078;12.878;2022-11-14T01:07:40;96583.03;;;15.60;41.05
44079;BME280;29744;49.078;12.878;2022-11-14T01:12:41;96561.41;;;15.60;41.30
44079;BME280;29744;49.078;12.878;2022-11-14T01:17:41;96564.09;;;15.60;41.07
44079;BME280;29744;49.078;12.878;2022-11-14T01:22:41;96559.81;;;15.59;41.35
44079;BME280;29744;49.078;12.878;2022-11-14T01:27:42;96566.34;;;15.58;41.09
44079;BME280;29744;49.078;12.878;2022-11-14T01:32:42;96563.97;;;15.56;41.57
44079;BME280;29744;49.078;12.878;2022-11-14T01:37:42;96546.97;;;15.56;41.22
44079;BME280;29744;49.078;12.878;2022-11-14T01:43:10;96553.81;;;15.53;41.24
44079;BME280;29744;49.078;12.878;2022-11-14T01:48:20;96550.31;;;15.53;41.44
44079;BME280;29744;49.078;12.878;2022-11-14T01:53:22;96552.22;;;15.52;41.29
44079;BME280;29744;49.078;12.878;2022-11-14T01:58:23;96539.50;;;15.53;41.42
44079;BME280;29744;49.078;12.878;2022-11-14T02:03:24;96536.34;;;15.51;41.06
44079;BME280;29744;49.078;12.878;2022-11-14T02:08:25;96540.16;;;15.50;41.27
44079;BME280;29744;49.078;12.878;2022-11-14T02:13:25;96539.38;;;15.49;41.54
44079;BME280;29744;49.078;12.878;2022-11-14T02:18:25;96524.25;;;15.48;41.22
44079;BME280;29744;49.078;12.878;2022-11-14T02:23:28;96517.28;;;15.47;41.13
44079;BME280;29744;49.078;12.878;2022-11-14T02:28:29;96515.69;;;15.46;41.26
44079;BME280;29744;49.078;12.878;2022-11-14T02:33:30;96505.22;;;15.44;41.09
44079;BME280;29744;49.078;12.878;2022-11-14T02:38:30;96500.94;;;15.43;41.57
44079;BME280;29744;49.078;12.878;2022-11-14T02:43:30;96497.75;;;15.41;41.46
44079;BME280;29744;49.078;12.878;2022-11-14T02:48:30;96493.47;;;15.40;41.17
44079;BME280;29744;49.078;12.878;2022-11-14T02:53:31;96479.50;;;15.38;41.20
44079;BME280;29744;49.078;12.878;2022-11-14T02:58:31;96483.31;;;15.37;41.30
44079;BME280;29744;49.078;12.878;2022-11-14T03:03:31;96479.81;;;15.37;41.64
44079;BME280;29744;49.078;12.878;2022-11-14T03:08:32;96481.28;;;15.34;41.36
44079;BME280;29744;49.078;12.878;2022-11-14T03:13:32;96482.06;;;15.35;41.79
44079;BME280;29744;49.078;12.878;2022-11-14T03:18:33;96482.38;;;15.33;41.71
44079;BME280;29744;49.078;12.878;2022-11-14T03:23:33;96483.50;;;15.32;41.48
44079;BME280;29744;49.078;12.878;2022-11-14T03:28:34;96480.00;;;15.32;41.50
44079;BME280;29744;49.078;12.878;2022-11-14T03:33:35;96477.63;;;15.30;41.25
44079;BME280;29744;49.078;12.878;2022-11-14T03:38:36;96473.34;;;15.29;41.75
44079;BME280;29744;49.078;12.878;2022-11-14T03:43:36;96472.88;;;15.27;41.62
44079;BME280;29744;49.078;12.878;2022-11-14T03:48:36;96465.91;;;15.26;41.41
44079;BME280;29744;49.078;12.878;2022-11-14T03:53:37;96464.31;;;15.25;41.49
44079;BME280;29744;49.078;12.878;2022-11-14T03:58:37;96454.63;;;15.24;41.80
44079;BME280;29744;49.078;12.878;2022-11-14T04:03:37;96467.34;;;15.24;41.51
44079;BME280;29744;49.078;12.878;2022-11-14T04:08:40;96460.38;;;15.23;41.21
44079;BME280;29744;49.078;12.878;2022-11-14T04:13:41;96454.97;;;15.23;41.45
44079;BME280;29744;49.078;12.878;2022-11-14T04:18:41;96458.00;;;15.21;41.79
44079;BME280;29744;49.078;12.878;2022-11-14T04:23:41;96456.41;;;15.20;41.29
44079;BME280;29744;49.078;12.878;2022-11-14T04:28:41;96445.13;;;15.18;41.63
44079;BME280;29744;49.078;12.878;2022-11-14T04:33:42;96466.75;;;15.18;41.44
44079;BME280;29744;49.078;12.878;2022-11-14T04:38:42;96458.63;;;15.18;41.49
44079;BME280;29744;49.078;12.878;2022-11-14T04:43:42;96453.25;;;15.18;41.81
44079;BME280;29744;49.078;12.878;2022-11-14T04:48:43;96457.53;;;15.19;41.51
44079;BME280;29744;49.078;12.878;2022-11-14T04:53:43;96467.22;;;15.20;41.91
44079;BME280;29744;49.078;12.878;2022-11-14T04:58:43;96464.97;;;15.22;41.55
44079;BME280;29744;49.078;12.878;2022-11-14T05:03:43;96453.84;;;15.24;41.83
44079;BME280;29744;49.078;12.878;2022-11-14T05:08:44;96464.47;;;15.29;41.80
44079;BME280;29744;49.078;12.878;2022-11-14T05:13:45;96471.13;;;15.31;41.64
44079;BME280;29744;49.078;12.878;2022-11-14T05:18:45;96463.16;;;15.35;41.94
44079;BME280;29744;49.078;12.878;2022-11-14T05:23:45;96473.75;;;15.40;42.08
44079;BME280;29744;49.078;12.878;2022-11-14T05:28:46;96469.28;;;15.44;42.23
44079;BME280;29744;49.078;12.878;2022-11-14T05:33:46;96478.00;;;15.50;41.93
44079;BME280;29744;49.078;12.878;2022-11-14T05:38:47;96475.09;;;15.55;42.28
44079;BME280;29744;49.078;12.878;2022-11-14T05:43:47;96473.78;;;15.61;41.97
44079;BME280;29744;49.078;12.878;2022-11-14T05:48:47;96473.13;;;15.64;42.33
44079;BME280;29744;49.078;12.878;2022-11-14T05:53:47;96469.44;;;15.68;42.20
44079;BME280;29744;49.078;12.878;2022-11-14T05:58:48;96471.94;;;15.73;42.03
44079;BME280;29744;49.078;12.878;2022-11-14T06:03:48;96479.06;;;15.78;42.09
44079;BME280;29744;49.078;12.878;2022-11-14T06:08:48;96491.94;;;15.81;42.28
44079;BME280;29744;49.078;12.878;2022-11-14T06:13:49;96496.69;;;15.84;42.36
44079;BME280;29744;49.078;12.878;2022-11-14T06:18:52;96517.66;;;15.87;42.04
44079;BME280;29744;49.078;12.878;2022-11-14T06:23:53;96520.50;;;15.91;41.79
44079;BME280;29744;49.078;12.878;2022-11-14T06:28:56;96530.66;;;15.94;42.16
44079;BME280;29744;49.078;12.878;2022-11-14T06:33:57;96522.22;;;15.95;41.93
44079;BME280;29744;49.078;12.878;2022-11-14T06:38:57;96530.00;;;15.97;42.30
44079;BME280;29744;49.078;12.878;2022-11-14T06:43:58;96535.88;;;15.99;42.00
44079;BME280;29744;49.078;12.878;2022-11-14T06:48:58;96532.84;;;16.00;41.99
44079;BME280;29744;49.078;12.878;2022-11-14T06:53:58;96534.41;;;16.01;42.03
44079;BME280;29744;49.078;12.878;2022-11-14T06:58:58;96534.09;;;16.03;41.76
44079;BME280;29744;49.078;12.878;2022-11-14T07:03:59;96520.56;;;16.03;41.87
44079;BME280;29744;49.078;12.878;2022-11-14T07:09:01;96511.31;;;16.04;41.80
44079;BME280;29744;49.078;12.878;2022-11-14T07:14:02;96510.19;;;16.05;41.63
44079;BME280;29744;49.078;12.878;2022-11-14T07:19:06;96515.63;;;16.05;42.11
44079;BME280;29744;49.078;12.878;2022-11-14T07:24:08;96511.78;;;16.06;41.92
44079;BME280;29744;49.078;12.878;2022-11-14T07:29:08;96518.00;;;16.06;41.45
44079;BME280;29744;49.078;12.878;2022-11-14T07:34:08;96511.44;;;16.07;41.46
44079;BME280;29744;49.078;12.878;2022-11-14T07:39:10;96502.53;;;16.07;41.93
44079;BME280;29744;49.078;12.878;2022-11-14T07:44:10;96510.34;;;16.08;41.89
44079;BME280;29744;49.078;12.878;2022-11-14T07:49:10;96508.75;;;16.07;41.73
44079;BME280;29744;49.078;12.878;2022-11-14T07:54:11;96523.84;;;16.08;41.59
44079;BME280;29744;49.078;12.878;2022-11-14T07:59:12;96514.94;;;16.08;41.60
44079;BME280;29744;49.078;12.878;2022-11-14T08:04:12;96517.66;;;16.08;41.73
44079;BME280;29744;49.078;12.878;2022-11-14T08:09:12;96512.56;;;16.06;41.79
44079;BME280;29744;49.078;12.878;2022-11-14T08:14:13;96503.66;;;16.06;41.37
44079;BME280;29744;49.078;12.878;2022-11-14T08:19:14;96510.66;;;16.07;41.51
44079;BME280;29744;49.078;12.878;2022-11-14T08:24:15;96504.47;;;16.06;41.44
44079;BME280;29744;49.078;12.878;2022-11-14T08:29:16;96513.69;;;16.05;41.50
44079;BME280;29744;49.078;12.878;2022-11-14T08:34:16;96496.69;;;16.05;41.43
44079;BME280;29744;49.078;12.878;2022-11-14T08:39:16;96504.00;;;16.04;41.42
44079;BME280;29744;49.078;12.878;2022-11-14T08:44:17;96506.72;;;16.04;41.51
44079;BME280;29744;49.078;12.878;2022-11-14T08:49:17;96496.22;;;16.03;41.49
44079;BME280;29744;49.078;12.878;2022-11-14T08:54:18;96493.84;;;16.01;41.41
44079;BME280;29744;49.078;12.878;2022-11-14T08:59:18;96496.53;;;16.01;41.54
44079;BME280;29744;49.078;12.878;2022-11-14T09:04:19;96499.59;;;16.00;41.40
44079;BME280;29744;49.078;12.878;2022-11-14T09:09:19;96494.19;;;16.00;41.36
44079;BME280;29744;49.078;12.878;2022-11-14T09:14:19;96502.63;;;15.98;41.71
44079;BME280;29744;49.078;12.878;2022-11-14T09:19:19;96499.44;;;15.96;41.79
44079;BME280;29744;49.078;12.878;2022-11-14T09:24:20;96500.25;;;15.97;41.26
44079;BME280;29744;49.078;12.878;2022-11-14T09:29:20;96490.88;;;15.94;41.26
44079;BME280;29744;49.078;12.878;2022-11-14T09:34:20;96490.09;;;15.94;41.65
44079;BME280;29744;49.078;12.878;2022-11-14T09:39:21;96481.97;;;15.94;41.25
44079;BME280;29744;49.078;12.878;2022-11-14T09:49:29;96479.94;;;15.91;41.59
44079;BME280;29744;49.078;12.878;2022-11-14T09:54:41;96468.31;;;15.90;41.78
44079;BME280;29744;49.078;12.878;2022-11-14T09:59:45;96455.13;;;15.89;41.69
44079;BME280;29744;49.078;12.878;2022-11-14T10:05:35;96470.09;;;15.86;41.78
44079;BME280;29744;49.078;12.878;2022-11-14T10:15:53;96454.22;;;15.85;41.78
44079;BME280;29744;49.078;12.878;2022-11-14T10:26:28;96458.69;;;15.81;41.77
44079;BME280;29744;49.078;12.878;2022-11-14T10:31:36;96452.50;;;15.80;41.39
44079;BME280;29744;49.078;12.878;2022-11-14T10:37:04;96451.72;;;15.80;41.74
44079;BME280;29744;49.078;12.878;2022-11-14T10:42:13;96450.91;;;15.79;41.71
44079;BME280;29744;49.078;12.878;2022-11-14T10:47:17;96450.44;;;15.77;41.65
44079;BME280;29744;49.078;12.878;2022-11-14T10:52:23;96452.00;;;15.78;41.72
44079;BME280;29744;49.078;12.878;2022-11-14T10:57:31;96446.16;;;15.76;41.79
44079;BME280;29744;49.078;12.878;2022-11-14T11:02:55;96441.72;;;15.71;41.64
44079;BME280;29744;49.078;12.878;2022-11-14T11:07:59;96430.59;;;15.73;41.43
44079;BME280;29744;49.078;12.878;2022-11-14T11:13:49;96427.75;;;15.69;41.64
44079;BME280;29744;49.078;12.878;2022-11-14T11:18:51;96423.94;;;15.70;41.98
44079;BME280;29744;49.078;12.878;2022-11-14T11:23:54;96407.72;;;15.70;41.49
44079;BME280;29744;49.078;12.878;2022-11-14T11:34:02;96408.03;;;15.69;41.72
44079;BME280;29744;49.078;12.878;2022-11-14T11:39:03;96397.22;;;15.69;42.03
44079;BME280;29744;49.078;12.878;2022-11-14T11:44:04;96399.94;;;15.69;41.87
44079;BME280;29744;49.078;12.878;2022-11-14T11:54:45;96396.75;;;15.67;41.82
44079;BME280;29744;49.078;12.878;2022-11-14T11:59:52;96402.16;;;15.67;42.11
44079;BME280;29744;49.078;12.878;2022-11-14T12:04:55;96398.69;;;15.66;42.06
44079;BME280;29744;49.078;12.878;2022-11-14T12:09:58;96400.25;;;15.67;42.13
44079;BME280;29744;49.078;12.878;2022-11-14T12:20:40;96398.22;;;15.64;41.65
44079;BME280;29744;49.078;12.878;2022-11-14T12:31:12;96400.91;;;15.64;41.62
44079;BME280;29744;49.078;12.878;2022-11-14T12:36:13;96399.00;;;15.65;41.79
44079;BME280;29744;49.078;12.878;2022-11-14T12:41:27;96408.56;;;15.62;41.68
44079;BME280;29744;49.078;12.878;2022-11-14T12:57:48;96404.63;;;15.60;41.92
44079;BME280;29744;49.078;12.878;2022-11-14T13:08:38;96413.06;;;15.58;42.02
44079;BME280;29744;49.078;12.878;2022-11-14T13:13:59;96420.72;;;15.56;41.87
44079;BME280;29744;49.078;12.878;2022-11-14T13:19:19;96415.38;;;15.48;42.37
44079;BME280;29744;49.078;12.878;2022-11-14T13:25:15;96415.97;;;15.53;41.77
44079;BME280;29744;49.078;12.878;2022-11-14T13:30:16;96409.44;;;15.54;42.26
44079;BME280;29744;49.078;12.878;2022-11-14T13:35:32;96411.34;;;15.54;42.05
44079;BME280;29744;49.078;12.878;2022-11-14T13:40:41;96418.34;;;15.55;41.99
44079;BME280;29744;49.078;12.878;2022-11-14T13:51:29;96406.72;;;15.54;42.07
44079;BME280;29744;49.078;12.878;2022-11-14T13:56:40;96416.75;;;15.54;42.29
44079;BME280;29744;49.078;12.878;2022-11-14T14:01:55;96424.06;;;15.53;42.11
44079;BME280;29744;49.078;12.878;2022-11-14T14:12:27;96442.53;;;15.51;42.21
44079;BME280;29744;49.078;12.878;2022-11-14T14:23:01;96444.78;;;15.49;42.07
44079;BME280;29744;49.078;12.878;2022-11-14T14:33:13;96458.28;;;15.49;41.75
44079;BME280;29744;49.078;12.878;2022-11-14T14:38:23;96464.47;;;15.50;41.89
44079;BME280;29744;49.078;12.878;2022-11-14T14:43:31;96466.72;;;15.48;42.00
44079;BME280;29744;49.078;12.878;2022-11-14T14:48:35;96471.34;;;15.47;42.11
44079;BME280;29744;49.078;12.878;2022-11-14T14:53:37;96473.25;;;15.46;42.28
44079;BME280;29744;49.078;12.878;2022-11-14T14:58:38;96471.66;;;15.45;41.86
44079;BME280;29744;49.078;12.878;2022-11-14T15:03:45;96478.97;;;15.45;42.04
44079;BME280;29744;49.078;12.878;2022-11-14T15:08:47;96482.81;;;15.44;42.31
44079;BME280;29744;49.078;12.878;2022-11-14T15:13:54;96478.50;;;15.43;41.81
44079;BME280;29744;49.078;12.878;2022-11-14T15:18:56;96491.22;;;15.42;42.24
44079;BME280;29744;49.078;12.878;2022-11-14T15:23:59;96481.22;;;15.43;41.87
44079;BME280;29744;49.078;12.878;2022-11-14T15:29:05;96489.66;;;15.41;42.13
44079;BME280;29744;49.078;12.878;2022-11-14T15:34:21;96488.06;;;15.40;42.08
44079;BME280;29744;49.078;12.878;2022-11-14T15:39:28;96493.47;;;15.40;42.01
44079;BME280;29744;49.078;12.878;2022-11-14T15:44:30;96495.38;;;15.40;42.13
44079;BME280;29744;49.078;12.878;2022-11-14T15:49:31;96497.28;;;15.39;41.93
44079;BME280;29744;49.078;12.878;2022-11-14T15:54:33;96510.00;;;15.39;42.07
44079;BME280;29744;49.078;12.878;2022-11-14T15:59:33;96505.72;;;15.38;42.27
44079;BME280;29744;49.078;12.878;2022-11-14T16:04:35;96513.03;;;15.37;42.37
44079;BME280;29744;49.078;12.878;2022-11-14T16:09:36;96511.47;;;15.36;42.24
44079;BME280;29744;49.078;12.878;2022-11-14T16:14:37;96516.06;;;15.36;42.00
44079;BME280;29744;49.078;12.878;2022-11-14T16:19:37;96514.16;;;15.36;41.81
44079;BME280;29744;49.078;12.878;2022-11-14T16:24:37;96507.63;;;15.37;42.09
44079;BME280;29744;49.078;12.878;2022-11-14T16:29:38;96499.19;;;15.39;42.17
44079;BME280;29744;49.078;12.878;2022-11-14T16:34:38;96495.06;;;15.41;42.18
44079;BME280;29744;49.078;12.878;2022-11-14T16:39:38;96494.72;;;15.43;42.11
44079;BME280;29744;49.078;12.878;2022-11-14T16:44:39;96505.69;;;15.46;41.95
44079;BME280;29744;49.078;12.878;2022-11-14T16:49:39;96513.91;;;15.50;41.93
44079;BME280;29744;49.078;12.878;2022-11-14T16:54:39;96505.16;;;15.53;42.22
44079;BME280;29744;49.078;12.878;2022-11-14T16:59:39;96508.00;;;15.57;42.47
44079;BME280;29744;49.078;12.878;2022-11-14T17:04:40;96504.63;;;15.60;42.56
44079;BME280;29744;49.078;12.878;2022-11-14T17:09:41;96517.97;;;15.65;42.38
44079;BME280;29744;49.078;12.878;2022-11-14T17:14:41;96517.28;;;15.68;42.67
44079;BME280;29744;49.078;12.878;2022-11-14T17:19:42;96513.94;;;15.71;42.24
44079;BME280;29744;49.078;12.878;2022-11-14T17:24:45;96504.50;;;15.77;42.77
44079;BME280;29744;49.078;12.878;2022-11-14T17:29:45;96495.78;;;15.80;42.31
44079;BME280;29744;49.078;12.878;2022-11-14T17:34:45;96493.53;;;15.82;42.16
44079;BME280;29744;49.078;12.878;2022-11-14T17:39:46;96510.69;;;15.86;42.45
44079;BME280;29744;49.078;12.878;2022-11-14T17:44:46;96519.25;;;15.88;42.55
44079;BME280;29744;49.078;12.878;2022-11-14T17:49:46;96519.38;;;15.92;42.45
44079;BME280;29744;49.078;12.878;2022-11-14T17:54:47;96518.72;;;15.95;42.34
44079;BME280;29744;49.078;12.878;2022-11-14T17:59:47;96517.59;;;15.96;42.76
44079;BME280;29744;49.078;12.878;2022-11-14T18:04:47;96512.66;;;15.98;42.09
44079;BME280;29744;49.078;12.878;2022-11-14T18:09:48;96508.81;;;15.99;42.37
44079;BME280;29744;49.078;12.878;2022-11-14T18:14:48;96512.78;;;16.01;42.27
44079;BME280;29744;49.078;12.878;2022-11-14T18:19:48;96508.94;;;16.02;42.21
44079;BME280;29744;49.078;12.878;2022-11-14T18:24:48;96511.31;;;16.04;42.19
44079;BME280;29744;49.078;12.878;2022-11-14T18:29:49;96505.13;;;16.03;42.18
44079;BME280;29744;49.078;12.878;2022-11-14T18:34:49;96510.19;;;16.05;42.12
44079;BME280;29744;49.078;12.878;2022-11-14T18:39:50;96507.16;;;16.06;42.36
44079;BME280;29744;49.078;12.878;2022-11-14T18:44:51;96503.66;;;16.06;42.05
44079;BME280;29744;49.078;12.878;2022-11-14T18:49:51;96509.06;;;16.06;42.16
44079;BME280;29744;49.078;12.878;2022-11-14T18:54:51;96512.56;;;16.06;41.86
44079;BME280;29744;49.078;12.878;2022-11-14T18:59:51;96511.44;;;16.07;42.09
44079;BME280;29744;49.078;12.878;2022-11-14T19:04:52;96506.84;;;16.08;42.26
44079;BME280;29744;49.078;12.878;2022-11-14T19:09:52;96509.53;;;16.08;41.97
44079;BME280;29744;49.078;12.878;2022-11-14T19:14:52;96507.28;;;16.10;42.12
44079;BME280;29744;49.078;12.878;2022-11-14T19:19:53;96504.59;;;16.10;41.71
44079;BME280;29744;49.078;12.878;2022-11-14T19:24:53;96506.97;;;16.12;41.75
44079;BME280;29744;49.078;12.878;2022-11-14T19:29:53;96507.75;;;16.12;42.01
44079;BME280;29744;49.078;12.878;2022-11-14T19:34:53;96501.22;;;16.13;42.19
44079;BME280;29744;49.078;12.878;2022-11-14T19:39:54;96491.19;;;16.14;42.03
44079;BME280;29744;49.078;12.878;2022-11-14T19:44:54;96497.38;;;16.14;42.06
44079;BME280;29744;49.078;12.878;2022-11-14T19:49:54;96503.59;;;16.15;42.16
44079;BME280;29744;49.078;12.878;2022-11-14T19:54:55;96492.78;;;16.15;41.67
44079;BME280;29744;49.078;12.878;2022-11-14T19:59:55;96493.56;;;16.15;42.14
44079;BME280;29744;49.078;12.878;2022-11-14T20:04:55;96494.34;;;16.16;41.87
44079;BME280;29744;49.078;12.878;2022-11-14T20:09:56;96497.84;;;16.16;42.07
44079;BME280;29744;49.078;12.878;2022-11-14T20:14:56;96494.03;;;16.17;41.80
44079;BME280;29744;49.078;12.878;2022-11-14T20:19:56;96500.56;;;16.16;41.70
44079;BME280;29744;49.078;12.878;2022-11-14T20:24:56;96508.66;;;16.16;41.92
44079;BME280;29744;49.078;12.878;2022-11-14T20:29:57;96503.25;;;16.16;41.88
44079;BME280;29744;49.078;12.878;2022-11-14T20:34:57;96504.06;;;16.17;41.92
44079;BME280;29744;49.078;12.878;2022-11-14T20:39:59;96491.66;;;16.16;41.85
44079;BME280;29744;49.078;12.878;2022-11-14T20:44:59;96491.66;;;16.16;41.61
44079;BME280;29744;49.078;12.878;2022-11-14T20:50:00;96506.31;;;16.15;41.58
44079;BME280;29744;49.078;12.878;2022-11-14T20:55:00;96502.00;;;16.14;42.00
44079;BME280;29744;49.078;12.878;2022-11-14T21:00:00;96500.44;;;16.13;41.80
44079;BME280;29744;49.078;12.878;2022-11-14T21:05:00;96503.94;;;16.13;41.64
44079;BME280;29744;49.078;12.878;2022-11-14T21:10:01;96503.47;;;16.11;41.78
44079;BME280;29744;49.078;12.878;2022-11-14T21:15:19;96509.22;;;16.09;41.54
44079;BME280;29744;49.078;12.878;2022-11-14T21:20:20;96503.00;;;16.09;41.78
44079;BME280;29744;49.078;12.878;2022-11-14T21:25:20;96496.00;;;16.08;42.00
44079;BME280;29744;49.078;12.878;2022-11-14T21:30:20;96499.06;;;16.06;41.56
44079;BME280;29744;49.078;12.878;2022-11-14T21:35:20;96493.63;;;16.06;41.97
44079;BME280;29744;49.078;12.878;2022-11-14T21:40:21;96499.06;;;16.06;41.40
44079;BME280;29744;49.078;12.878;2022-11-14T21:45:21;96487.44;;;16.06;41.85
44079;BME280;29744;49.078;12.878;2022-11-14T21:50:21;96476.94;;;16.04;42.13
44079;BME280;29744;49.078;12.878;2022-11-14T21:55:22;96488.09;;;16.03;41.47
44079;BME280;29744;49.078;12.878;2022-11-14T22:00:22;96484.59;;;16.02;42.09
44079;BME280;29744;49.078;12.878;2022-11-14T22:05:22;96482.22;;;16.01;41.66
44079;BME280;29744;49.078;12.878;2022-11-14T22:10:23;96484.16;;;16.00;41.66
44079;BME280;29744;49.078;12.878;2022-11-14T22:15:23;96493.06;;;16.01;41.87
44079;BME280;29744;49.078;12.878;2022-11-14T22:20:23;96483.34;;;16.00;41.96
44079;BME280;29744;49.078;12.878;2022-11-14T22:25:23;96482.56;;;15.99;41.76
44079;BME280;29744;49.078;12.878;2022-11-14T22:30:24;96483.69;;;15.98;41.48
44079;BME280;29744;49.078;12.878;2022-11-14T22:35:24;96478.59;;;15.97;41.88
44079;BME280;29744;49.078;12.878;2022-11-14T22:40:24;96479.72;;;15.96;41.76
44079;BME280;29744;49.078;12.878;2022-11-14T22:45:24;96481.66;;;15.95;41.45
44079;BME280;29744;49.078;12.878;2022-11-14T22:50:25;96476.09;;;15.92;41.46
44079;BME280;29744;49.078;12.878;2022-11-14T22:55:25;96479.16;;;15.90;41.86
44079;BME280;29744;49.078;12.878;2022-11-14T23:00:25;96476.44;;;15.90;42.01
44079;BME280;29744;49.078;12.878;2022-11-14T23:05:26;96475.97;;;15.88;41.89
44079;BME280;29744;49.078;12.878;2022-11-14T23:10:26;96472.81;;;15.86;41.77
44079;BME280;29744;49.078;12.878;2022-11-14T23:15:26;96462.31;;;15.85;41.77
44079;BME280;29744;49.078;12.878;2022-11-14T23:20:27;96469.66;;;15.84;41.48
44079;BME280;29744;49.078;12.878;2022-11-14T23:25:27;96471.09;;;15.82;41.69
44079;BME280;29744;49.078;12.878;2022-11-14T23:30:27;96453.59;;;15.79;41.73
44079;BME280;29744;49.078;12.878;2022-11-14T23:35:28;96454.72;;;15.78;41.53
44079;BME280;29744;49.078;12.878;2022-11-14T23:40:28;96455.84;;;15.77;41.96
44079;BME280;29744;49.078;12.878;2022-11-14T23:45:28;96449.97;;;15.75;41.86
44079;BME280;29744;49.078;12.878;2022-11-14T23:50:28;96445.69;;;15.74;41.85
44079;BME280;29744;49.078;12.878;2022-11-14T23:55:29;96442.19;;;15.73;41.67
